Paxson, AK

5:08 PM AKDT on July 29, 2015 (GMT -0800)
Allen Army Air Field | | Change Station
CLOSE
Current Station
Airport
Location: Big Delta,
Elevation: 1306 ft
Nearby Weather Stations

Elev 1306 ft 63.99 °N, 145.72 °W | Updated 15 minutes ago

Mostly Cloudy
Mostly Cloudy
66 °F
Feels Like 66 °F
N
10
Wind Variable Wind from West

Today
High -- | Low -- °F
--% Chance of Precip.
Yesterday
High -- | Low -- °F
Precip. -- in
4:40 AM 10:54 PM
Waxing Gibbous, 97% visible
Pressure 29.95 in
Visibility 7.0 miles
Clouds Scattered Clouds 5500 ft
Mostly Cloudy 8000 ft
Mostly Cloudy 14000 ft
Dew Point 45 °F
Humidity 47%
Rainfall 0.00 in
Snow Depth Not available.
UV 2 out of 12
Pollen Not available.
Air Quality Not available.
Flu Activity Not available.
METAR PABI 300053Z 27009KT 7SM SCT055 BKN080 BKN140 19/07 A2994 RMK AO2 SLP141 SHRA DSNT SE-S-SW FU DSNT ALQDS T01890072

More Conditions Fewer Conditions

Pressure 29.95 in
Visibility 7.0 miles
Clouds Scattered Clouds 5500 ft
Mostly Cloudy 8000 ft
Mostly Cloudy 14000 ft
Dew Point 45 °F
Humidity 47%
Rainfall 0.00 in
Snow Depth Not available.
UV 2 out of 12
Pollen Not available.
Air Quality Not available.
Flu Activity Not available.
METAR PABI 300053Z 27009KT 7SM SCT055 BKN080 BKN140 19/07 A2994 RMK AO2 SLP141 SHRA DSNT SE-S-SW FU DSNT ALQDS T01890072

More Conditions Fewer Conditions

10-Day Weather Forecast

×

Almanac

Astronomy

Jul. 29, 2015 Rise Set
Actual Time
Civil Twilight
Nautical Twilight
Astronomical Twilight
Moon
Length of Visible Light
Length of Day
Tomorrow will be .
, % of the Moon is Illuminated

Today's Extremes

State Highs State Lows

Community

WunderPhotos

Upload Photos

1,842,236 photos uploaded!

WunderBlogs® & News

Nearby

Air Quality

  Air Quality AQ Index Pollutant
Not available.

Snow Depth

Station Depth Elevation

Earthquake Activity

City Distance Mag. Time & Date
Minimum magnitude displayed is 2.5.

Coastal Water Temperatures

Place Temperature

Stations

Nearby Weather Stations

Station Location Temp. Windchill Dew Point Humidity Wind Precip. Elev Updated Type